Time;durP1;ratioP1;P1;durP2;ratioP2;P2;SDS_P1;SDS_P2;PMS_P1;PMS_P2;Temp;Humidity;BMP_temperature;BMP_pressure;BME280_temperature;BME280_humidity;BME280_pressure;Samples;Min_cycle;Max_cycle;Signal;HPM_P1;HPM_P2
2022/01/08 00:01:32;;;;;;;6.65;2.00;;;;;;;2.53;92.07;101093.75;5024100;28;20377;-71
2022/01/08 00:03:57;;;;;;;16.30;2.10;;;;;;;2.55;92.07;101094.72;5031373;28;20025;-71
2022/01/08 00:06:22;;;;;;;8.25;1.70;;;;;;;2.59;91.37;101101.88;5023791;28;20461;-70
2022/01/08 00:08:49;;;;;;;8.90;2.28;;;;;;;2.59;91.68;101096.69;5032232;28;20109;-71
2022/01/08 00:11:18;;;;;;;16.80;1.80;;;;;;;2.63;91.52;101100.31;5032453;28;20045;-71
2022/01/08 00:13:43;;;;;;;10.18;1.75;;;;;;;2.66;91.53;101097.91;5029212;28;20025;-70
2022/01/08 00:16:09;;;;;;;5.78;1.17;;;;;;;2.71;91.16;101096.41;5024419;28;20553;-71
2022/01/08 00:18:34;;;;;;;12.20;1.77;;;;;;;2.72;91.21;101102.50;5026743;28;20059;-71
2022/01/08 00:21:00;;;;;;;4.95;1.15;;;;;;;2.79;90.55;101109.81;5021255;28;20112;-71
2022/01/08 00:23:25;;;;;;;10.73;1.70;;;;;;;2.83;90.49;101112.63;5033360;28;20029;-70
2022/01/08 00:25:50;;;;;;;17.13;1.73;;;;;;;2.84;90.70;101103.16;5023417;28;20112;-71
2022/01/08 00:28:16;;;;;;;11.35;1.35;;;;;;;2.83;90.45;101117.81;5025214;28;20094;-70
2022/01/08 00:30:41;;;;;;;8.15;1.70;;;;;;;2.81;90.80;101126.38;5024666;28;20541;-71
2022/01/08 00:33:07;;;;;;;9.90;1.60;;;;;;;2.81;90.48;101118.59;5020182;28;20025;-71
2022/01/08 00:35:33;;;;;;;6.78;1.55;;;;;;;2.77;90.45;101117.53;5021508;28;20045;-71
2022/01/08 00:37:58;;;;;;;9.35;1.90;;;;;;;2.79;90.14;101109.81;5035851;28;20126;-71
2022/01/08 00:40:24;;;;;;;8.52;1.73;;;;;;;2.79;89.69;101109.81;5024914;28;20029;-71
2022/01/08 00:42:49;;;;;;;7.50;1.33;;;;;;;2.81;89.62;101108.19;5021327;28;20056;-71
2022/01/08 00:45:14;;;;;;;9.45;1.48;;;;;;;2.80;89.72;101111.59;5029472;28;20037;-71
2022/01/08 00:47:40;;;;;;;7.45;1.15;;;;;;;2.80;89.60;101109.00;5033073;28;20022;-70
2022/01/08 00:50:06;;;;;;;9.15;1.35;;;;;;;2.76;90.05;101099.25;5033748;28;20037;-70
2022/01/08 00:52:31;;;;;;;9.85;1.48;;;;;;;2.75;90.38;101102.66;5019569;28;20049;-71
2022/01/08 00:54:57;;;;;;;9.73;1.85;;;;;;;2.70;90.63;101102.44;5020621;28;20037;-70
2022/01/08 00:57:22;;;;;;;7.40;1.80;;;;;;;2.72;90.74;101107.72;5034170;28;20025;-71
2022/01/08 00:59:47;;;;;;;10.18;1.30;;;;;;;2.61;91.34;101105.44;5033469;28;20397;-70
2022/01/08 01:02:13;;;;;;;7.38;1.33;;;;;;;2.49;92.13;101116.03;5030537;28;20079;-70
2022/01/08 01:04:38;;;;;;;5.35;1.52;;;;;;;2.42;93.13;101120.84;5032218;28;20108;-72
2022/01/08 01:07:03;;;;;;;7.13;1.75;;;;;;;2.32;94.00;101122.03;5018146;28;20481;-70
2022/01/08 01:09:29;;;;;;;7.97;1.23;;;;;;;2.28;94.10;101126.19;5025442;28;20120;-72
2022/01/08 01:11:57;;;;;;;10.85;1.65;;;;;;;2.21;94.62;101129.22;5031606;28;20378;-71
2022/01/08 01:14:24;;;;;;;8.70;1.30;;;;;;;2.19;94.97;101126.56;5031882;28;20033;-71
2022/01/08 01:16:50;;;;;;;6.32;1.33;;;;;;;2.23;95.23;101122.44;5025931;28;20054;-70
2022/01/08 01:19:15;;;;;;;10.25;1.85;;;;;;;2.26;94.47;101125.19;5015483;28;20080;-70
2022/01/08 01:21:40;;;;;;;10.07;1.75;;;;;;;2.16;95.21;101121.22;5020905;28;20037;-70
2022/01/08 01:24:13;;;;;;;3.63;1.35;;;;;;;2.08;95.85;101132.00;5033556;28;20108;-71
2022/01/08 01:26:45;;;;;;;7.72;1.73;;;;;;;1.97;97.44;101128.78;5030817;28;20037;-70
2022/01/08 01:29:34;;;;;;;9.00;1.63;;;;;;;1.83;97.18;101140.97;5018940;28;20025;-71
2022/01/08 01:48:05;;;;;;;9.43;1.30;;;;;;;1.75;98.66;101144.84;5029507;28;20037;-70
2022/01/08 01:50:30;;;;;;;6.50;1.48;;;;;;;1.67;99.68;101150.50;5033177;28;20037;-71
2022/01/08 01:52:55;;;;;;;8.18;2.00;;;;;;;1.61;99.49;101150.13;5029206;28;20370;-71
2022/01/08 01:55:21;;;;;;;5.90;1.70;;;;;;;1.59;100.00;101159.53;5031976;28;20060;-70
2022/01/08 01:57:48;;;;;;;14.23;1.75;;;;;;;1.58;100.00;101157.72;5017819;28;20473;-71
2022/01/08 02:00:13;;;;;;;9.35;1.75;;;;;;;1.59;100.00;101151.75;5017978;28;20155;-71
2022/01/08 02:02:40;;;;;;;14.20;1.75;;;;;;;1.62;100.00;101162.28;5019468;28;20170;-70
2022/01/08 02:05:06;;;;;;;8.00;1.92;;;;;;;1.63;100.00;101164.09;5031074;28;20036;-70
2022/01/08 02:07:32;;;;;;;9.25;1.50;;;;;;;1.68;100.00;101159.16;5018875;28;20030;-71
2022/01/08 02:09:57;;;;;;;9.93;1.55;;;;;;;1.69;100.00;101167.00;5028362;28;20057;-71
2022/01/08 02:12:23;;;;;;;11.27;1.95;;;;;;;1.77;100.00;101164.00;5023058;28;20123;-70
2022/01/08 02:14:50;;;;;;;12.30;2.00;;;;;;;1.85;100.00;101152.34;5020134;28;20481;-71
2022/01/08 02:17:15;;;;;;;17.70;3.08;;;;;;;2.05;100.00;101160.34;5022456;28;20045;-70
2022/01/08 02:19:42;;;;;;;8.15;1.65;;;;;;;2.17;100.00;101172.31;5024504;28;20033;-70
2022/01/08 02:22:15;;;;;;;10.15;1.98;;;;;;;2.20;99.92;101163.81;5020900;28;20045;-70
2022/01/08 02:24:41;;;;;;;4.55;1.63;;;;;;;2.14;99.08;101160.88;5021748;28;20390;-70
2022/01/08 02:27:06;;;;;;;11.93;2.00;;;;;;;2.14;99.98;101168.66;5015121;28;20449;-70
2022/01/08 02:29:32;;;;;;;8.90;1.73;;;;;;;2.19;100.00;101162.03;5014654;28;20112;-71
2022/01/08 02:32:04;;;;;;;10.48;1.70;;;;;;;2.38;100.00;101165.66;5020178;28;20029;-71
2022/01/08 02:34:31;;;;;;;9.82;2.10;;;;;;;2.49;98.73;101155.00;5026238;28;20053;-70
2022/01/08 02:36:58;;;;;;;13.27;2.50;;;;;;;2.64;97.66;101154.06;5013844;28;20137;-73
2022/01/08 02:39:24;;;;;;;7.88;1.58;;;;;;;2.74;96.74;101151.16;5002760;28;20033;-69
2022/01/08 02:41:59;;;;;;;10.02;1.95;;;;;;;2.80;95.69;101135.00;5031204;28;20022;-70
2022/01/08 02:44:26;;;;;;;7.22;1.45;;;;;;;2.87;94.99;101139.69;5023504;28;20033;-71
2022/01/08 02:46:51;;;;;;;8.63;1.73;;;;;;;2.85;94.85;101143.94;5020578;28;20470;-70
2022/01/08 02:49:17;;;;;;;4.28;1.42;;;;;;;2.86;94.83;101148.28;5014080;28;20074;-71
2022/01/08 02:51:43;;;;;;;6.22;1.88;;;;;;;2.82;94.32;101135.94;5031612;28;20033;-72
2022/01/08 02:54:10;;;;;;;8.13;1.38;;;;;;;2.74;94.77;101139.84;5032012;28;20069;-71
2022/01/08 02:56:41;;;;;;;6.18;1.50;;;;;;;2.62;95.73;101138.41;5031163;28;20044;-71
2022/01/08 02:59:07;;;;;;;5.50;1.38;;;;;;;2.57;96.02;101142.44;5028584;28;20760;-70
2022/01/08 03:01:33;;;;;;;7.80;1.92;;;;;;;2.47;97.04;101141.06;5020775;28;20069;-70
2022/01/08 03:03:59;;;;;;;7.93;2.13;;;;;;;2.40;97.10;101141.56;5021129;28;20018;-71
2022/01/08 03:06:24;;;;;;;9.95;1.40;;;;;;;2.42;97.81;101139.91;5031231;28;20136;-72
2022/01/08 03:08:50;;;;;;;8.73;1.33;;;;;;;2.38;97.10;101137.97;5031483;28;20025;-72
2022/01/08 03:11:15;;;;;;;5.20;1.38;;;;;;;2.38;97.82;101137.09;5016906;28;20104;-70
2022/01/08 03:13:41;;;;;;;8.60;1.40;;;;;;;2.39;97.98;101133.66;5021039;28;20433;-69
2022/01/08 03:16:06;;;;;;;7.32;1.85;;;;;;;2.40;97.44;101140.63;5032061;28;20030;-71
2022/01/08 03:18:34;;;;;;;7.03;1.42;;;;;;;2.42;98.06;101134.72;5013871;28;20033;-70
2022/01/08 03:21:02;;;;;;;13.50;1.65;;;;;;;2.48;97.86;101135.06;5025010;28;20431;-71
2022/01/08 03:23:37;;;;;;;10.50;1.77;;;;;;;2.53;97.22;101135.31;5013758;28;20550;-70
2022/01/08 03:26:03;;;;;;;12.60;1.77;;;;;;;2.63;97.05;101140.19;5021054;28;20513;-71
2022/01/08 03:28:28;;;;;;;7.68;1.42;;;;;;;2.72;96.51;101146.69;5019843;28;20033;-71
2022/01/08 03:30:53;;;;;;;7.97;1.20;;;;;;;2.68;96.55;101140.41;5030917;28;20029;-70
2022/01/08 03:33:18;;;;;;;12.60;1.60;;;;;;;2.72;96.29;101134.56;5031060;28;20033;-71
2022/01/08 03:35:44;;;;;;;10.05;1.50;;;;;;;2.77;96.29;101132.19;5022405;28;20056;-72
2022/01/08 03:38:09;;;;;;;8.73;1.35;;;;;;;2.79;95.68;101126.28;5023837;28;20406;-71
2022/01/08 03:40:34;;;;;;;8.05;1.30;;;;;;;2.87;94.63;101118.91;5018462;28;20036;-71
2022/01/08 03:43:00;;;;;;;12.68;1.52;;;;;;;2.87;93.93;101124.09;5022163;28;20037;-71
2022/01/08 03:45:25;;;;;;;6.05;1.33;;;;;;;2.91;93.75;101130.34;5025406;28;20161;-71
2022/01/08 03:50:16;;;;;;;4.35;1.42;;;;;;;2.93;93.83;101124.44;5030322;28;20069;-71
2022/01/08 03:52:43;;;;;;;7.80;1.40;;;;;;;2.92;93.78;101130.44;5029136;28;20393;-71
2022/01/08 03:55:09;;;;;;;5.72;1.15;;;;;;;2.90;94.49;101131.16;5024115;28;20087;-70
2022/01/08 03:57:34;;;;;;;3.03;1.10;;;;;;;2.89;94.27;101130.28;5023999;28;20066;-70
2022/01/08 03:59:59;;;;;;;8.70;1.30;;;;;;;2.82;94.54;101125.56;5016548;28;20366;-71
2022/01/08 04:02:25;;;;;;;10.00;1.10;;;;;;;2.74;95.59;101132.06;5031400;28;20059;-71
2022/01/08 04:04:50;;;;;;;6.63;1.55;;;;;;;2.69;95.60;101129.22;5017008;28;20042;-71
2022/01/08 04:07:15;;;;;;;5.00;2.25;;;;;;;2.66;96.42;101129.06;5022964;28;20017;-71
2022/01/08 04:09:41;;;;;;;14.00;2.85;;;;;;;2.59;96.61;101135.63;5031031;28;20030;-71
2022/01/08 04:12:08;;;;;;;4.22;1.42;;;;;;;2.51;97.80;101140.41;5035462;28;20389;-70
2022/01/08 04:14:49;;;;;;;6.47;1.83;;;;;;;2.49;98.33;101133.34;5031411;28;20386;-70
2022/01/08 04:17:16;;;;;;;3.80;1.45;;;;;;;2.41;98.25;101142.44;5028463;28;20076;-70
2022/01/08 04:19:41;;;;;;;7.28;1.77;;;;;;;2.34;99.27;101149.88;5022138;28;20454;-70
2022/01/08 04:22:13;;;;;;;8.27;1.88;;;;;;;2.32;100.00;101143.72;5033131;28;20056;-71
2022/01/08 04:24:39;;;;;;;5.15;1.80;;;;;;;2.35;100.00;101153.38;5034204;28;20417;-71
2022/01/08 04:27:05;;;;;;;4.75;1.60;;;;;;;2.34;100.00;101152.47;5033289;28;20029;-71
2022/01/08 04:29:31;;;;;;;7.82;1.60;;;;;;;2.27;100.00;101150.34;5026163;28;20133;-71
2022/01/08 04:31:56;;;;;;;7.15;1.90;;;;;;;2.16;100.00;101164.47;5027687;28;20026;-71
2022/01/08 04:34:22;;;;;;;3.45;1.52;;;;;;;2.04;100.00;101167.25;5016483;28;20065;-71
2022/01/08 04:36:47;;;;;;;9.50;1.73;;;;;;;1.92;100.00;101172.63;5026279;28;20061;-71
2022/01/08 04:39:12;;;;;;;11.50;2.08;;;;;;;1.78;100.00;101166.66;5015650;28;20058;-71
2022/01/08 04:41:38;;;;;;;5.15;1.77;;;;;;;1.69;100.00;101169.63;5034067;28;20029;-70
2022/01/08 04:44:06;;;;;;;6.68;1.92;;;;;;;1.66;100.00;101173.75;5035122;28;20021;-70
2022/01/08 04:46:32;;;;;;;6.15;1.60;;;;;;;1.73;100.00;101181.06;5019639;28;20037;-70
2022/01/08 04:48:57;;;;;;;12.35;2.45;;;;;;;1.80;100.00;101182.31;5016863;28;20022;-71
2022/01/08 04:51:22;;;;;;;7.93;1.60;;;;;;;1.85;100.00;101186.09;5026979;28;20081;-70
2022/01/08 04:53:48;;;;;;;6.18;1.30;;;;;;;1.88;100.00;101183.66;5028936;28;20061;-70
2022/01/08 04:56:13;;;;;;;11.57;1.45;;;;;;;1.85;100.00;101175.69;5018872;28;20061;-70
2022/01/08 04:58:39;;;;;;;6.25;1.08;;;;;;;1.81;100.00;101173.75;5015884;28;20056;-71
2022/01/08 05:01:04;;;;;;;10.18;1.85;;;;;;;1.77;100.00;101176.97;5026446;28;20425;-70
2022/01/08 05:03:29;;;;;;;6.72;2.03;;;;;;;1.79;100.00;101172.75;5015786;28;20533;-70
2022/01/08 05:05:54;;;;;;;8.02;1.65;;;;;;;1.78;100.00;101173.56;5026747;28;20136;-70
2022/01/08 05:08:20;;;;;;;8.55;2.03;;;;;;;1.73;100.00;101167.22;5019180;28;20105;-71
2022/01/08 05:10:45;;;;;;;7.03;2.00;;;;;;;1.72;100.00;101168.00;5026572;28;20026;-71
2022/01/08 05:13:10;;;;;;;8.35;2.20;;;;;;;1.72;100.00;101168.91;5017381;28;20025;-70
2022/01/08 05:15:36;;;;;;;5.60;1.83;;;;;;;1.72;100.00;101175.78;5018747;28;20541;-71
2022/01/08 05:18:04;;;;;;;6.53;1.88;;;;;;;1.75;100.00;101168.19;5023912;28;20497;-70
2022/01/08 05:20:33;;;;;;;9.35;2.90;;;;;;;1.69;100.00;101153.16;5019772;28;20043;-71
2022/01/08 05:23:02;;;;;;;7.95;1.80;;;;;;;1.68;100.00;101164.34;5031608;28;20036;-70
2022/01/08 05:25:29;;;;;;;13.27;2.17;;;;;;;1.74;100.00;101176.78;5030705;28;20067;-70
2022/01/08 05:27:56;;;;;;;9.90;1.98;;;;;;;1.76;100.00;101190.72;5019486;28;20033;-70
2022/01/08 05:30:26;;;;;;;7.72;2.20;;;;;;;1.74;100.00;101192.38;5017398;28;20033;-71
2022/01/08 05:32:52;;;;;;;11.70;1.85;;;;;;;1.72;100.00;101193.97;5018470;28;20486;-71
2022/01/08 05:35:18;;;;;;;13.82;2.10;;;;;;;1.74;100.00;101202.75;5014739;28;20430;-70
2022/01/08 05:37:44;;;;;;;12.63;2.05;;;;;;;1.70;100.00;101196.47;5030344;28;20049;-70
2022/01/08 05:40:10;;;;;;;10.18;2.10;;;;;;;1.69;100.00;101207.63;5023363;28;20144;-71
2022/01/08 05:42:36;;;;;;;6.30;1.98;;;;;;;1.68;100.00;101204.16;5013480;28;20033;-70
2022/01/08 05:45:02;;;;;;;9.88;2.10;;;;;;;1.74;100.00;101208.81;5027549;28;20025;-70
2022/01/08 05:47:30;;;;;;;8.25;1.92;;;;;;;1.76;100.00;101203.72;5028056;28;20367;-70
2022/01/08 05:49:56;;;;;;;7.15;1.98;;;;;;;1.75;100.00;101199.31;5022132;28;20117;-71
2022/01/08 05:52:21;;;;;;;5.13;1.92;;;;;;;1.73;100.00;101200.94;5020648;28;20478;-70
2022/01/08 05:54:47;;;;;;;8.10;1.63;;;;;;;1.69;100.00;101185.19;5021696;28;20037;-71
2022/01/08 05:57:12;;;;;;;6.05;1.60;;;;;;;1.68;100.00;101192.88;5020026;28;20038;-70
2022/01/08 05:59:38;;;;;;;10.77;2.50;;;;;;;1.65;100.00;101198.78;5023844;28;20026;-71
2022/01/08 06:02:05;;;;;;;10.85;2.17;;;;;;;1.61;100.00;101193.34;5026494;28;20036;-72
2022/01/08 06:04:30;;;;;;;12.52;2.60;;;;;;;1.57;100.00;101184.47;5014472;28;20481;-70
2022/01/08 06:06:56;;;;;;;11.65;2.25;;;;;;;1.56;100.00;101179.19;5022238;28;20028;-70
2022/01/08 06:09:21;;;;;;;6.38;1.73;;;;;;;1.53;100.00;101179.91;5024865;28;20053;-71
2022/01/08 06:11:46;;;;;;;17.38;2.25;;;;;;;1.51;100.00;101169.44;5029959;28;20025;-70
2022/01/08 06:14:12;;;;;;;7.25;2.08;;;;;;;1.51;100.00;101168.56;5026299;28;20124;-70
2022/01/08 06:16:39;;;;;;;5.15;1.83;;;;;;;1.50;100.00;101172.84;5021612;28;20496;-69
2022/01/08 06:19:09;;;;;;;9.57;2.08;;;;;;;1.49;100.00;101172.75;5032215;28;20045;-70
2022/01/08 06:21:36;;;;;;;11.45;1.70;;;;;;;1.50;100.00;101174.56;5016102;28;20501;-70
2022/01/08 06:24:01;;;;;;;7.95;1.65;;;;;;;1.49;100.00;101170.16;5023233;28;20858;-71
2022/01/08 06:26:27;;;;;;;8.90;1.90;;;;;;;1.47;100.00;101166.59;5017849;28;20030;-71
2022/01/08 06:28:52;;;;;;;9.98;2.15;;;;;;;1.42;100.00;101168.03;5020796;28;20017;-71
2022/01/08 06:31:19;;;;;;;8.20;1.85;;;;;;;1.35;100.00;101167.66;5026839;28;20887;-70
2022/01/08 06:33:44;;;;;;;12.18;2.33;;;;;;;1.31;100.00;101159.63;5030056;28;20231;-71
2022/01/08 06:36:10;;;;;;;3.97;1.80;;;;;;;1.28;100.00;101162.91;5029311;28;20112;-74
2022/01/08 06:38:35;;;;;;;7.57;2.30;;;;;;;1.28;100.00;101165.50;5029817;28;20056;-72
2022/01/08 06:41:01;;;;;;;10.02;2.38;;;;;;;1.34;100.00;101167.56;5031299;28;20363;-73
2022/01/08 06:43:26;;;;;;;8.70;2.25;;;;;;;1.33;100.00;101169.28;5014462;28;20049;-72
2022/01/08 06:45:52;;;;;;;9.07;2.25;;;;;;;1.28;100.00;101155.13;5025524;28;20580;-72
2022/01/08 06:48:17;;;;;;;11.45;3.28;;;;;;;1.34;100.00;101165.88;5019555;28;20021;-72
2022/01/08 06:50:42;;;;;;;6.53;2.55;;;;;;;1.35;100.00;101162.47;5017234;28;20037;-71
2022/01/08 06:53:08;;;;;;;10.98;2.63;;;;;;;1.46;100.00;101164.81;5019028;28;20037;-72
2022/01/08 06:55:33;;;;;;;9.93;2.78;;;;;;;1.50;100.00;101146.91;5023083;28;20417;-72
2022/01/08 06:57:59;;;;;;;11.90;2.60;;;;;;;1.60;100.00;101150.03;5013960;28;20026;-72
2022/01/08 07:00:25;;;;;;;6.93;2.40;;;;;;;1.69;100.00;101150.56;5022938;28;20030;-73
2022/01/08 07:02:50;;;;;;;10.07;2.88;;;;;;;1.89;100.00;101146.53;5027157;28;20078;-73
2022/01/08 07:05:16;;;;;;;14.35;2.90;;;;;;;1.92;100.00;101149.28;5016574;28;20467;-73
2022/01/08 07:07:41;;;;;;;12.80;3.80;;;;;;;1.99;100.00;101148.84;5024370;28;20026;-72
2022/01/08 07:10:07;;;;;;;10.18;2.42;;;;;;;2.07;100.00;101145.78;5028148;28;20068;-73
2022/01/08 07:12:32;;;;;;;7.47;2.55;;;;;;;2.15;100.00;101144.50;5022193;28;20037;-73
2022/01/08 07:14:58;;;;;;;4.97;2.00;;;;;;;2.20;100.00;101137.84;5022843;28;20484;-72
2022/01/08 07:17:23;;;;;;;15.15;2.17;;;;;;;2.28;100.00;101133.06;5030612;28;20128;-73
2022/01/08 07:19:49;;;;;;;4.35;2.03;;;;;;;2.36;100.00;101132.69;5022845;28;20057;-72
2022/01/08 07:22:15;;;;;;;9.48;2.30;;;;;;;2.42;100.00;101129.53;5024440;28;20084;-72
2022/01/08 07:24:40;;;;;;;10.07;2.35;;;;;;;2.47;100.00;101121.97;5021568;28;20041;-72
2022/01/08 07:27:06;;;;;;;11.32;2.58;;;;;;;2.56;100.00;101129.38;5035371;28;20355;-72
2022/01/08 07:29:31;;;;;;;13.50;2.20;;;;;;;2.59;100.00;101126.94;5019972;28;20030;-74
2022/01/08 07:31:56;;;;;;;5.95;1.92;;;;;;;2.61;100.00;101130.53;5025192;28;20030;-72
2022/01/08 07:34:22;;;;;;;10.82;2.20;;;;;;;2.61;100.00;101121.00;5036039;28;20122;-73
2022/01/08 07:36:48;;;;;;;7.97;2.35;;;;;;;2.60;100.00;101115.75;5035015;28;20053;-72
2022/01/08 07:39:13;;;;;;;6.00;2.28;;;;;;;2.61;100.00;101121.00;5035949;28;20496;-74
2022/01/08 07:41:39;;;;;;;8.63;2.92;;;;;;;2.63;100.00;101114.22;5037113;28;20022;-74
2022/01/08 07:44:05;;;;;;;5.13;2.17;;;;;;;2.62;100.00;101120.22;5029356;28;20163;-74
2022/01/08 07:46:30;;;;;;;11.23;2.90;;;;;;;2.59;100.00;101112.25;5024231;28;20030;-73
2022/01/08 07:48:55;;;;;;;6.78;2.25;;;;;;;2.61;100.00;101110.63;5036809;28;20025;-73
2022/01/08 07:51:21;;;;;;;5.68;1.92;;;;;;;2.61;100.00;101112.34;5033503;28;20105;-73
2022/01/08 07:53:46;;;;;;;6.32;2.10;;;;;;;2.64;100.00;101123.75;5036837;28;20044;-73
2022/01/08 07:56:12;;;;;;;11.68;3.05;;;;;;;2.67;100.00;101121.34;5029749;28;20026;-73
2022/01/08 07:58:37;;;;;;;16.40;2.95;;;;;;;2.72;100.00;101118.97;5036013;28;20052;-73
2022/01/08 08:01:02;;;;;;;11.25;2.42;;;;;;;2.74;100.00;101108.66;5035906;28;20033;-75
2022/01/08 08:03:28;;;;;;;7.13;2.00;;;;;;;2.74;100.00;101103.47;5036208;28;20095;-73
2022/01/08 08:05:53;;;;;;;8.13;2.40;;;;;;;2.74;100.00;101096.59;5023465;28;20025;-72
2022/01/08 08:08:20;;;;;;;10.52;2.78;;;;;;;2.70;100.00;101095.53;5028215;28;20488;-73
2022/01/08 08:10:48;;;;;;;8.05;2.35;;;;;;;2.66;100.00;101092.69;5033002;28;20512;-72
2022/01/08 08:13:14;;;;;;;5.35;2.30;;;;;;;2.74;100.00;101090.47;5031885;28;20029;-71
2022/01/08 08:15:40;;;;;;;13.18;2.78;;;;;;;2.75;100.00;101089.66;5028523;28;20033;-70
2022/01/08 08:18:05;;;;;;;10.38;2.00;;;;;;;2.79;100.00;101095.09;5025801;28;20466;-70
2022/01/08 08:20:31;;;;;;;9.95;2.33;;;;;;;2.86;100.00;101085.91;5016980;28;20541;-70
2022/01/08 08:22:57;;;;;;;12.90;2.28;;;;;;;2.87;100.00;101083.38;5029027;28;20031;-70
2022/01/08 08:25:22;;;;;;;9.70;2.13;;;;;;;2.89;100.00;101075.69;5020764;28;20033;-71
2022/01/08 08:27:47;;;;;;;12.27;2.55;;;;;;;2.89;100.00;101083.50;5025610;28;20490;-71
2022/01/08 08:30:13;;;;;;;10.82;2.40;;;;;;;2.89;100.00;101079.97;5024361;28;20036;-71
2022/01/08 08:32:38;;;;;;;12.35;2.58;;;;;;;2.89;100.00;101078.28;5030414;28;20034;-70
2022/01/08 08:35:04;;;;;;;6.75;2.30;;;;;;;2.91;100.00;101076.66;5034671;28;20021;-70
2022/01/08 08:37:30;;;;;;;10.25;2.53;;;;;;;2.94;100.00;101066.41;5019712;28;20071;-71
2022/01/08 08:39:55;;;;;;;10.57;2.53;;;;;;;2.92;100.00;101057.66;5015726;28;20029;-70
2022/01/08 08:42:20;;;;;;;8.15;2.45;;;;;;;2.89;100.00;101052.31;5032177;28;20037;-70
2022/01/08 08:44:46;;;;;;;15.02;3.55;;;;;;;2.86;100.00;101049.53;5032933;28;20025;-70
2022/01/08 08:47:11;;;;;;;8.82;2.70;;;;;;;2.91;100.00;101053.25;5028784;28;20037;-71
2022/01/08 08:49:37;;;;;;;10.60;3.80;;;;;;;2.89;100.00;101047.09;5030576;28;20022;-71
2022/01/08 08:52:02;;;;;;;12.38;3.70;;;;;;;2.90;100.00;101048.88;5028589;28;20076;-70
2022/01/08 08:54:28;;;;;;;13.30;3.65;;;;;;;2.90;100.00;101048.88;5024148;28;20454;-70
2022/01/08 08:56:53;;;;;;;8.50;4.68;;;;;;;2.86;100.00;101049.53;5030974;28;20485;-70
2022/01/08 08:59:18;;;;;;;17.40;4.95;;;;;;;2.88;100.00;101047.91;5020873;28;20374;-71
2022/01/08 09:01:44;;;;;;;11.18;5.28;;;;;;;2.84;100.00;101056.38;5034779;28;20462;-71
2022/01/08 09:04:09;;;;;;;16.95;5.70;;;;;;;2.85;100.00;101047.75;5022540;28;20025;-70
2022/01/08 09:06:35;;;;;;;14.18;6.50;;;;;;;2.82;100.00;101034.59;5028486;28;20160;-73
2022/01/08 09:09:01;;;;;;;18.80;5.78;;;;;;;2.88;100.00;101032.31;5033633;28;20167;-75
2022/01/08 09:11:27;;;;;;;13.90;6.18;;;;;;;2.92;100.00;101018.66;5019973;28;20037;-73
2022/01/08 09:13:53;;;;;;;12.55;6.03;;;;;;;2.91;100.00;101016.88;5028201;28;20525;-73
2022/01/08 09:16:18;;;;;;;15.63;6.75;;;;;;;2.92;100.00;101016.06;5030802;28;20112;-73
2022/01/08 09:18:44;;;;;;;16.20;7.53;;;;;;;2.91;100.00;100996.06;5034363;28;20029;-74
2022/01/08 09:21:10;;;;;;;11.57;7.00;;;;;;;2.91;100.00;101009.06;5034096;28;20108;-72
2022/01/08 09:23:37;;;;;;;15.40;8.05;;;;;;;2.96;100.00;101002.41;5029828;28;20371;-73
2022/01/08 09:26:03;;;;;;;15.73;7.90;;;;;;;2.98;100.00;100992.97;5022251;28;20033;-74
2022/01/08 09:28:29;;;;;;;19.65;9.05;;;;;;;3.00;100.00;100991.34;5028507;28;20358;-75
2022/01/08 09:30:55;;;;;;;15.82;8.73;;;;;;;3.03;100.00;100986.28;5019502;28;20021;-74
2022/01/08 09:33:21;;;;;;;22.23;9.60;;;;;;;3.03;100.00;100981.09;5032019;28;20377;-73
2022/01/08 09:35:47;;;;;;;14.27;8.73;;;;;;;3.07;100.00;100984.75;5025962;28;20038;-73
2022/01/08 09:38:13;;;;;;;20.13;8.70;;;;;;;3.09;100.00;100961.41;5014790;28;20122;-72
2022/01/08 09:40:38;;;;;;;19.10;8.70;;;;;;;3.12;100.00;100956.34;5018734;28;20041;-73
2022/01/08 09:43:04;;;;;;;18.77;9.30;;;;;;;3.16;100.00;100963.47;5016739;28;20057;-73
2022/01/08 09:45:29;;;;;;;11.63;8.85;;;;;;;3.17;100.00;100967.88;5027009;28;20087;-72
2022/01/08 09:47:55;;;;;;;17.40;8.82;;;;;;;3.17;100.00;100954.88;5030846;28;20029;-75
2022/01/08 09:50:20;;;;;;;16.85;9.48;;;;;;;3.16;100.00;100959.19;5033136;28;20112;-74
2022/01/08 09:52:45;;;;;;;14.25;9.13;;;;;;;3.22;100.00;100956.00;5032076;28;20080;-71
2022/01/08 09:55:11;;;;;;;17.40;8.55;;;;;;;3.23;100.00;100942.19;5028957;28;20063;-71
2022/01/08 09:57:36;;;;;;;17.08;8.63;;;;;;;3.26;100.00;100937.13;5025858;28;20105;-69
2022/01/08 10:00:10;;;;;;;12.98;8.80;;;;;;;3.27;100.00;100935.41;5018145;28;20386;-71
2022/01/08 10:02:35;;;;;;;17.40;8.60;;;;;;;3.30;100.00;100936.44;5022708;28;20022;-70
2022/01/08 10:05:14;;;;;;;17.55;9.68;;;;;;;3.30;100.00;100922.56;5031444;28;20119;-71
2022/01/08 10:07:40;;;;;;;18.60;9.02;;;;;;;3.30;100.00;100906.94;5018373;28;20064;-71
2022/01/08 10:10:17;;;;;;;13.77;8.70;;;;;;;3.32;100.00;100906.22;5024416;28;20037;-70
2022/01/08 10:12:59;;;;;;;16.17;8.85;;;;;;;3.33;100.00;100901.88;5030453;28;20116;-70
2022/01/08 10:18:30;;;;;;;14.55;9.05;;;;;;;3.36;100.00;100873.41;5031529;28;20445;-69
2022/01/08 10:20:56;;;;;;;22.70;8.35;;;;;;;3.35;100.00;100869.03;5022059;28;20033;-70
2022/01/08 10:23:31;;;;;;;13.90;7.68;;;;;;;3.44;100.00;100852.97;5032624;28;20381;-71
2022/01/08 10:26:06;;;;;;;16.73;8.00;;;;;;;3.49;100.00;100848.88;5032268;28;20120;-72
2022/01/08 10:28:42;;;;;;;15.15;7.45;;;;;;;3.55;100.00;100836.13;5021288;28;20021;-71
2022/01/08 10:31:21;;;;;;;14.15;7.65;;;;;;;3.61;100.00;100830.28;5013999;28;20030;-70
2022/01/08 10:33:51;;;;;;;18.08;7.75;;;;;;;3.63;100.00;100829.53;5014860;28;20025;-72
2022/01/08 10:36:37;;;;;;;13.15;6.93;;;;;;;3.68;100.00;100828.03;5025333;28;20034;-71
2022/01/08 10:39:08;;;;;;;12.88;7.10;;;;;;;3.74;100.00;100837.81;5029083;28;20028;-72
2022/01/08 10:41:42;;;;;;;15.00;7.88;;;;;;;3.78;100.00;100816.31;5031928;28;20038;-72
2022/01/08 10:44:14;;;;;;;17.00;5.63;;;;;;;3.87;100.00;100795.00;5038026;28;20111;-71
2022/01/08 10:46:54;;;;;;;13.30;5.85;;;;;;;3.90;100.00;100791.66;5024657;28;20063;-71
2022/01/08 10:49:35;;;;;;;12.52;6.70;;;;;;;4.00;100.00;100767.78;5031329;28;20076;-70
2022/01/08 10:52:05;;;;;;;14.07;5.63;;;;;;;4.12;99.47;100772.63;5032730;28;20041;-71
2022/01/08 10:54:34;;;;;;;13.45;5.63;;;;;;;4.16;97.47;100751.06;5030979;28;20034;-71
2022/01/08 10:57:01;;;;;;;12.00;5.22;;;;;;;4.16;97.70;100749.34;5029840;28;20048;-71
2022/01/08 10:59:28;;;;;;;9.57;5.25;;;;;;;4.21;96.26;100737.41;5020595;28;20034;-71
2022/01/08 11:01:56;;;;;;;9.18;4.07;;;;;;;4.25;97.00;100732.34;5013685;28;20410;-71
2022/01/08 11:04:34;;;;;;;10.10;5.57;;;;;;;4.33;96.39;100726.59;5022972;28;20470;-71
2022/01/08 11:07:02;;;;;;;10.85;4.15;;;;;;;4.42;95.95;100714.78;5021647;28;20034;-70
2022/01/08 11:09:28;;;;;;;9.70;3.78;;;;;;;4.50;95.87;100703.84;5025617;28;20044;-72
2022/01/08 11:11:56;;;;;;;9.80;2.97;;;;;;;4.53;95.62;100700.44;5024312;28;20037;-72
2022/01/08 11:17:19;;;;;;;7.80;2.92;;;;;;;4.51;95.26;100679.53;5021660;28;20137;-70
2022/01/08 11:19:49;;;;;;;10.07;3.92;;;;;;;4.48;95.12;100673.34;5026225;28;20082;-71
2022/01/08 11:22:16;;;;;;;10.00;4.07;;;;;;;4.49;95.20;100667.28;5020278;28;20025;-71
2022/01/08 11:25:01;;;;;;;8.70;2.97;;;;;;;4.54;94.88;100648.41;5031492;28;20488;-70
2022/01/08 11:27:41;;;;;;;9.68;2.65;;;;;;;4.57;95.16;100658.03;5022786;28;20045;-70
2022/01/08 11:30:24;;;;;;;6.25;2.67;;;;;;;4.62;95.02;100656.50;5028881;28;20087;-70
2022/01/08 11:32:54;;;;;;;9.20;2.87;;;;;;;4.61;94.74;100649.50;5027117;28;20415;-70
2022/01/08 11:35:21;;;;;;;4.63;2.30;;;;;;;4.60;94.87;100639.91;5026434;28;20482;-70
2022/01/08 11:37:48;;;;;;;4.88;2.40;;;;;;;4.50;95.38;100637.78;5019695;28;20038;-71
2022/01/08 11:40:17;;;;;;;5.85;2.80;;;;;;;4.47;95.90;100632.47;5014870;28;20029;-70
2022/01/08 11:42:43;;;;;;;6.55;2.97;;;;;;;4.46;97.18;100617.66;5012519;28;20112;-70
2022/01/08 11:45:13;;;;;;;8.73;2.90;;;;;;;4.44;98.43;100614.13;5023359;28;20140;-71
2022/01/08 11:47:43;;;;;;;10.60;3.00;;;;;;;4.41;99.28;100599.25;5030546;28;20084;-70